Time;durP1;ratioP1;P1;durP2;ratioP2;P2;SDS_P1;SDS_P2;PMS_P1;PMS_P2;Temp;Humidity;BMP_temperature;BMP_pressure;BME280_temperature;BME280_humidity;BME280_pressure;Samples;Min_cycle;Max_cycle;Signal;HPM_P1;HPM_P2
2021/01/19 00:00:38;;;;;;;46.90;19.13;;;-11.20;61.80;;;;;;5098984;28;20076;-58
2021/01/19 00:03:04;;;;;;;48.22;20.38;;;-11.30;61.80;;;;;;5099283;28;20020;-58
2021/01/19 00:05:30;;;;;;;51.72;21.15;;;-11.30;61.90;;;;;;5098673;28;20032;-57
2021/01/19 00:07:55;;;;;;;50.85;21.38;;;-11.30;62.00;;;;;;5099436;28;20016;-58
2021/01/19 00:10:21;;;;;;;53.97;20.90;;;-11.30;62.10;;;;;;5098738;28;20024;-58
2021/01/19 00:12:47;;;;;;;52.35;21.08;;;-11.30;62.10;;;;;;5099002;28;20349;-58
2021/01/19 00:15:13;;;;;;;48.90;21.27;;;-11.30;62.00;;;;;;5098827;28;20489;-57
2021/01/19 00:17:39;;;;;;;48.05;20.63;;;-11.30;62.00;;;;;;5098814;28;20555;-57
2021/01/19 00:20:05;;;;;;;54.53;22.15;;;-11.40;62.00;;;;;;5098508;28;20028;-58
2021/01/19 00:22:32;;;;;;;55.53;22.35;;;-11.40;62.10;;;;;;5098840;28;20441;-58
2021/01/19 00:24:59;;;;;;;47.97;20.75;;;-11.40;62.20;;;;;;5098367;28;20028;-58
2021/01/19 00:27:24;;;;;;;49.08;20.77;;;-11.40;62.20;;;;;;5098340;28;20028;-58
2021/01/19 00:29:50;;;;;;;49.88;20.38;;;-11.40;62.10;;;;;;5098105;28;20426;-58
2021/01/19 00:32:16;;;;;;;48.72;19.08;;;-11.40;62.00;;;;;;5098616;28;20031;-57
2021/01/19 00:34:41;;;;;;;47.95;19.98;;;-11.40;62.10;;;;;;5098245;28;20043;-57
2021/01/19 00:37:07;;;;;;;50.78;21.13;;;-11.50;62.10;;;;;;5098981;28;20028;-58
2021/01/19 00:39:33;;;;;;;48.33;19.65;;;-11.40;62.40;;;;;;5098021;28;20071;-58
2021/01/19 00:41:58;;;;;;;48.55;21.20;;;-11.40;62.40;;;;;;5098171;28;20031;-58
2021/01/19 00:44:24;;;;;;;44.78;20.45;;;-11.40;62.40;;;;;;5097661;28;20053;-58
2021/01/19 00:46:51;;;;;;;47.40;20.02;;;-11.40;62.30;;;;;;5098227;28;20038;-58
2021/01/19 00:49:17;;;;;;;45.00;19.48;;;-11.40;62.30;;;;;;5097510;28;20045;-58
2021/01/19 00:51:43;;;;;;;45.80;19.77;;;-11.40;62.40;;;;;;5097964;28;20031;-57
2021/01/19 00:54:09;;;;;;;48.30;19.48;;;-11.40;62.50;;;;;;5097847;28;20024;-58
2021/01/19 00:56:36;;;;;;;51.55;20.45;;;-11.40;62.60;;;;;;5097524;28;20036;-58
2021/01/19 00:59:02;;;;;;;48.42;19.83;;;-11.40;62.70;;;;;;5098155;28;20061;-58
2021/01/19 01:01:28;;;;;;;46.85;21.02;;;-11.40;62.60;;;;;;5097945;28;20333;-57
2021/01/19 01:03:54;;;;;;;54.42;20.40;;;-11.40;62.50;;;;;;5097577;28;20102;-58
2021/01/19 01:06:20;;;;;;;54.45;22.17;;;-11.40;62.40;;;;;;5097464;28;20432;-57
2021/01/19 01:08:45;;;;;;;44.92;19.83;;;-11.40;62.60;;;;;;5097928;28;20034;-58
2021/01/19 01:11:11;;;;;;;53.08;20.52;;;-11.40;62.50;;;;;;5097327;28;20032;-57
2021/01/19 01:13:37;;;;;;;51.38;19.95;;;-11.40;62.60;;;;;;5097858;28;20038;-58
2021/01/19 01:16:05;;;;;;;59.90;21.42;;;-11.30;62.80;;;;;;5097366;28;20028;-58
2021/01/19 01:18:33;;;;;;;46.50;19.90;;;-11.30;62.70;;;;;;5097202;28;20024;-57
2021/01/19 01:20:58;;;;;;;52.92;22.50;;;-11.30;62.50;;;;;;5097479;28;20047;-58
2021/01/19 01:23:24;;;;;;;52.10;21.35;;;-11.30;62.40;;;;;;5097422;28;20422;-57
2021/01/19 01:25:50;;;;;;;53.75;22.60;;;-11.30;62.60;;;;;;5096723;28;20084;-57
2021/01/19 01:28:15;;;;;;;46.50;20.25;;;-11.20;62.70;;;;;;5097471;28;20341;-58
2021/01/19 01:30:41;;;;;;;47.33;19.58;;;-11.30;62.60;;;;;;5097111;28;20031;-57
2021/01/19 01:33:06;;;;;;;51.75;20.27;;;-11.20;62.50;;;;;;5096908;28;20027;-58
2021/01/19 01:35:32;;;;;;;47.42;19.48;;;-11.20;62.50;;;;;;5096618;28;20036;-58
2021/01/19 01:37:58;;;;;;;48.30;20.67;;;-11.20;62.50;;;;;;5097299;28;20507;-58
2021/01/19 01:40:25;;;;;;;55.17;21.42;;;-11.20;62.40;;;;;;5096980;28;20310;-57
2021/01/19 01:42:55;;;;;;;49.75;20.13;;;-11.20;62.40;;;;;;5097200;28;20035;-58
2021/01/19 01:45:23;;;;;;;50.25;20.08;;;-11.30;62.30;;;;;;5097510;28;20019;-58
2021/01/19 01:47:50;;;;;;;57.15;21.60;;;-11.20;62.60;;;;;;5096587;28;20448;-58
2021/01/19 01:50:17;;;;;;;58.90;23.00;;;-11.20;62.60;;;;;;5096714;28;20068;-58
2021/01/19 01:52:43;;;;;;;45.92;20.08;;;-11.20;62.40;;;;;;5096745;28;20039;-58
2021/01/19 01:55:10;;;;;;;46.92;20.17;;;-11.20;62.40;;;;;;5096431;28;20026;-58
2021/01/19 01:57:37;;;;;;;45.85;19.20;;;-11.20;62.50;;;;;;5096560;28;20024;-58
2021/01/19 02:00:06;;;;;;;46.83;21.25;;;-11.20;62.40;;;;;;5097006;28;20467;-58
2021/01/19 02:02:32;;;;;;;45.22;19.45;;;-11.10;62.30;;;;;;5096650;28;20028;-57
2021/01/19 02:04:58;;;;;;;53.05;20.25;;;-11.20;62.20;;;;;;5096295;28;20024;-58
2021/01/19 02:07:27;;;;;;;51.28;20.17;;;-11.20;62.20;;;;;;5096993;28;20051;-58
2021/01/19 02:10:09;;;;;;;45.45;18.65;;;-11.20;62.20;;;;;;5096030;28;20020;-58
2021/01/19 02:13:15;;;;;;;48.95;20.33;;;-11.20;62.30;;;;;;5096963;28;20031;-58
2021/01/19 02:16:22;;;;;;;48.42;19.33;;;-11.20;62.40;;;;;;5095514;28;20036;-58
2021/01/19 02:19:04;;;;;;;49.58;19.33;;;-11.20;62.50;;;;;;5075083;28;20050;-58
2021/01/19 02:22:14;;;;;;;48.00;19.15;;;-11.20;62.60;;;;;;5096027;28;20607;-58
2021/01/19 02:25:08;;;;;;;45.95;19.30;;;-11.10;62.80;;;;;;5047279;28;20047;-57
2021/01/19 02:28:05;;;;;;;46.00;19.60;;;-11.10;62.70;;;;;;5070054;28;20123;-58
2021/01/19 02:30:30;;;;;;;48.75;19.63;;;-11.10;62.50;;;;;;5095856;28;20055;-58
2021/01/19 02:33:35;;;;;;;52.85;20.17;;;-11.10;62.40;;;;;;5096268;28;20051;-58
2021/01/19 02:36:30;;;;;;;50.70;20.35;;;-11.10;62.40;;;;;;5096194;28;20138;-57
2021/01/19 02:38:58;;;;;;;50.53;20.58;;;-11.10;62.30;;;;;;5096314;28;20058;-58
2021/01/19 02:41:26;;;;;;;47.63;18.58;;;-11.10;62.40;;;;;;5095660;28;20028;-57
2021/01/19 02:44:14;;;;;;;48.90;20.17;;;-11.10;62.40;;;;;;5095564;28;20127;-58
2021/01/19 02:46:40;;;;;;;46.83;19.13;;;-11.20;62.30;;;;;;5095317;28;20043;-58
2021/01/19 02:49:06;;;;;;;48.40;19.13;;;-11.10;62.30;;;;;;5096201;28;20032;-59
2021/01/19 02:51:31;;;;;;;45.90;19.30;;;-11.10;62.50;;;;;;5095714;28;20120;-58
2021/01/19 02:53:58;;;;;;;48.97;21.33;;;-11.20;62.40;;;;;;5095568;28;20100;-58
2021/01/19 02:56:33;;;;;;;50.65;20.48;;;-11.10;62.40;;;;;;5094853;28;20043;-57
2021/01/19 02:59:07;;;;;;;46.60;19.90;;;-11.10;62.80;;;;;;5095990;28;20032;-58
2021/01/19 03:01:43;;;;;;;48.90;20.58;;;-11.10;62.20;;;;;;5095258;28;20335;-58
2021/01/19 03:04:10;;;;;;;45.70;18.92;;;-11.20;62.20;;;;;;5096217;28;20024;-58
2021/01/19 03:06:36;;;;;;;44.72;20.75;;;-11.20;62.30;;;;;;5095679;28;20032;-58
2021/01/19 03:09:03;;;;;;;47.38;19.98;;;-11.20;62.20;;;;;;5095409;28;20020;-57
2021/01/19 03:11:31;;;;;;;45.05;19.77;;;-11.20;62.40;;;;;;5095734;28;20345;-58
2021/01/19 03:13:57;;;;;;;46.95;19.73;;;-11.20;62.40;;;;;;5095647;28;20429;-58
2021/01/19 03:16:24;;;;;;;50.65;19.35;;;-11.20;62.40;;;;;;5095411;28;20028;-58
2021/01/19 03:18:51;;;;;;;47.70;20.33;;;-11.20;62.50;;;;;;5095829;28;20431;-58
2021/01/19 03:21:16;;;;;;;55.92;20.55;;;-11.20;62.50;;;;;;5095097;28;20051;-58
2021/01/19 03:23:42;;;;;;;46.20;19.02;;;-11.30;62.40;;;;;;5095426;28;20374;-59
2021/01/19 03:26:09;;;;;;;48.28;20.30;;;-11.20;62.50;;;;;;5095673;28;20031;-57
2021/01/19 03:28:35;;;;;;;43.95;18.95;;;-11.20;62.40;;;;;;5096446;28;20030;-57
2021/01/19 03:31:01;;;;;;;50.08;19.75;;;-11.20;62.30;;;;;;5099353;28;20024;-57
2021/01/19 03:33:27;;;;;;;53.65;20.00;;;-11.30;62.30;;;;;;5099845;28;20494;-58
2021/01/19 03:35:53;;;;;;;47.55;19.38;;;-11.30;62.30;;;;;;5099342;28;20122;-57
2021/01/19 03:38:19;;;;;;;49.75;19.88;;;-11.20;62.30;;;;;;5099607;28;20051;-58
2021/01/19 03:40:45;;;;;;;52.47;18.95;;;-11.30;61.80;;;;;;5099614;28;20028;-58
2021/01/19 03:43:11;;;;;;;47.80;19.23;;;-11.30;61.80;;;;;;5099033;28;20024;-58
2021/01/19 03:45:36;;;;;;;45.50;19.55;;;-11.40;62.00;;;;;;5099235;28;20043;-58
2021/01/19 03:48:02;;;;;;;51.20;19.67;;;-11.30;62.20;;;;;;5099356;28;20448;-58
2021/01/19 03:50:28;;;;;;;43.50;18.95;;;-11.30;62.10;;;;;;5099706;28;20028;-58
2021/01/19 03:52:55;;;;;;;44.30;19.15;;;-11.40;62.00;;;;;;5099261;28;20016;-58
2021/01/19 03:55:21;;;;;;;45.17;19.42;;;-11.40;62.10;;;;;;5098618;28;20020;-58
2021/01/19 03:57:46;;;;;;;46.78;18.65;;;-11.40;62.20;;;;;;5099390;28;20032;-58
2021/01/19 04:00:13;;;;;;;52.67;19.58;;;-11.40;62.10;;;;;;5099095;28;20023;-58
2021/01/19 04:02:40;;;;;;;47.90;19.05;;;-11.40;62.00;;;;;;5099239;28;20467;-58
2021/01/19 04:05:06;;;;;;;43.13;18.63;;;-11.40;62.00;;;;;;5098759;28;20027;-58
2021/01/19 04:07:33;;;;;;;54.90;20.48;;;-11.40;62.20;;;;;;5099524;28;20024;-58
2021/01/19 04:09:59;;;;;;;51.58;18.73;;;-11.40;62.10;;;;;;5098816;28;20373;-58
2021/01/19 04:12:24;;;;;;;41.78;18.17;;;-11.40;62.10;;;;;;5098918;28;20071;-58
2021/01/19 04:14:50;;;;;;;53.80;19.90;;;-11.40;61.90;;;;;;5098990;28;20034;-58
2021/01/19 04:17:16;;;;;;;41.75;17.77;;;-11.40;61.70;;;;;;5098822;28;20345;-58
2021/01/19 04:19:41;;;;;;;46.00;19.10;;;-11.40;61.60;;;;;;5098800;28;20381;-57
2021/01/19 04:22:07;;;;;;;50.40;19.90;;;-11.50;61.50;;;;;;5098756;28;20056;-58
2021/01/19 04:24:33;;;;;;;50.33;18.48;;;-11.50;61.50;;;;;;5098197;28;20039;-58
2021/01/19 04:26:58;;;;;;;48.95;19.02;;;-11.60;61.50;;;;;;5098735;28;20050;-58
2021/01/19 04:29:24;;;;;;;42.10;19.05;;;-11.60;61.60;;;;;;5098513;28;20422;-58
2021/01/19 04:31:50;;;;;;;53.28;20.08;;;-11.60;61.70;;;;;;5098436;28;20035;-57
2021/01/19 04:34:15;;;;;;;46.75;19.25;;;-11.70;61.50;;;;;;5098113;28;20047;-58
2021/01/19 04:36:41;;;;;;;48.80;19.70;;;-11.70;61.70;;;;;;5097548;28;20055;-58
2021/01/19 04:39:07;;;;;;;50.65;21.10;;;-11.70;61.80;;;;;;5096880;28;20032;-58
2021/01/19 04:41:35;;;;;;;56.83;20.15;;;-11.70;61.80;;;;;;5098245;28;20561;-58
2021/01/19 04:44:03;;;;;;;48.10;19.40;;;-11.70;61.80;;;;;;5097269;28;20131;-58
2021/01/19 04:46:29;;;;;;;41.63;19.35;;;-11.70;61.60;;;;;;5097686;28;20349;-58
2021/01/19 04:48:55;;;;;;;47.45;19.48;;;-11.70;61.70;;;;;;5094782;28;20028;-57
2021/01/19 04:51:28;;;;;;;43.95;19.20;;;-11.70;61.80;;;;;;5094877;28;20027;-57
2021/01/19 04:54:06;;;;;;;45.28;19.40;;;-11.70;61.80;;;;;;5097930;28;20171;-57
2021/01/19 04:56:36;;;;;;;44.65;19.90;;;-11.70;61.70;;;;;;5097965;28;20056;-58
2021/01/19 04:59:11;;;;;;;51.05;20.65;;;-11.70;61.70;;;;;;5097588;28;20050;-57
2021/01/19 05:01:39;;;;;;;50.45;19.73;;;-11.80;61.60;;;;;;5097371;28;20032;-58
2021/01/19 05:04:26;;;;;;;52.38;21.15;;;-11.80;61.60;;;;;;5097770;28;20028;-58
2021/01/19 05:06:57;;;;;;;54.17;19.10;;;-11.80;61.70;;;;;;5097723;28;20132;-58
2021/01/19 05:09:34;;;;;;;49.60;19.70;;;-11.90;61.40;;;;;;5097508;28;20028;-58
2021/01/19 05:12:03;;;;;;;52.95;20.25;;;-11.90;61.30;;;;;;5097613;28;20036;-58
2021/01/19 05:14:37;;;;;;;48.90;19.05;;;-12.00;61.40;;;;;;5097676;28;20161;-57
2021/01/19 05:17:03;;;;;;;52.58;21.98;;;-12.00;61.80;;;;;;5097740;28;20021;-58
2021/01/19 05:19:30;;;;;;;51.65;20.08;;;-11.90;62.50;;;;;;5097160;28;20032;-58
2021/01/19 05:21:56;;;;;;;52.78;20.45;;;-12.00;61.80;;;;;;5097354;28;20094;-58
2021/01/19 05:24:24;;;;;;;40.45;18.15;;;-11.90;62.10;;;;;;5096268;28;20028;-58
2021/01/19 05:26:51;;;;;;;52.17;20.40;;;-11.90;62.40;;;;;;5077353;28;20068;-58
2021/01/19 05:29:17;;;;;;;45.28;19.52;;;-11.90;62.00;;;;;;5075949;28;20025;-58
2021/01/19 05:31:42;;;;;;;44.72;19.73;;;-11.80;62.00;;;;;;5076569;28;20052;-58
2021/01/19 05:34:12;;;;;;;43.67;19.17;;;-11.80;62.00;;;;;;5076637;28;20016;-58
2021/01/19 05:36:41;;;;;;;47.70;19.55;;;-11.80;62.10;;;;;;5077048;28;20032;-58
2021/01/19 05:39:10;;;;;;;49.75;21.60;;;-11.80;62.10;;;;;;5076809;28;20123;-58
2021/01/19 05:41:40;;;;;;;43.72;18.33;;;-11.70;62.10;;;;;;5075875;28;20040;-58
2021/01/19 05:44:21;;;;;;;51.10;19.98;;;-11.70;61.80;;;;;;5082443;28;20027;-58
2021/01/19 05:46:52;;;;;;;41.88;17.35;;;-11.70;61.80;;;;;;5096196;28;20036;-58
2021/01/19 05:49:23;;;;;;;50.55;21.35;;;-11.60;61.90;;;;;;5095522;28;20027;-58
2021/01/19 05:51:53;;;;;;;47.28;18.63;;;-11.60;61.80;;;;;;5094491;28;20059;-58
2021/01/19 05:54:24;;;;;;;43.78;19.13;;;-11.60;62.30;;;;;;5095089;28;20429;-58
2021/01/19 05:56:57;;;;;;;50.72;20.33;;;-11.60;61.50;;;;;;5095277;28;20036;-58
2021/01/19 05:59:43;;;;;;;41.80;18.75;;;-11.60;61.50;;;;;;5093290;28;20059;-58
2021/01/19 06:02:13;;;;;;;46.90;19.15;;;-11.70;61.60;;;;;;5095104;28;20028;-58
2021/01/19 06:04:52;;;;;;;43.22;18.45;;;-11.60;61.70;;;;;;5094830;28;20032;-58
2021/01/19 06:07:26;;;;;;;45.83;18.83;;;-11.60;61.70;;;;;;5094953;28;20445;-58
2021/01/19 06:09:53;;;;;;;48.05;19.35;;;-11.60;61.60;;;;;;5094845;28;20081;-58
2021/01/19 06:12:20;;;;;;;44.42;19.33;;;-11.60;61.50;;;;;;5093637;28;20390;-58
2021/01/19 06:14:52;;;;;;;49.53;20.63;;;-11.60;61.80;;;;;;5094426;28;20039;-59
2021/01/19 06:17:23;;;;;;;47.65;19.25;;;-11.50;62.00;;;;;;5096257;28;20030;-58
2021/01/19 06:19:53;;;;;;;45.35;20.85;;;-11.50;62.00;;;;;;5095878;28;20093;-58
2021/01/19 06:22:23;;;;;;;52.88;19.50;;;-11.40;61.80;;;;;;5096009;28;20392;-59
2021/01/19 06:24:51;;;;;;;46.45;19.65;;;-11.40;61.80;;;;;;5095075;28;20043;-53
2021/01/19 06:27:23;;;;;;;41.35;18.33;;;-11.40;61.50;;;;;;5095292;28;20028;-51
2021/01/19 06:29:58;;;;;;;44.35;18.67;;;-11.40;61.30;;;;;;5095529;28;20409;-54
2021/01/19 06:32:25;;;;;;;50.78;20.00;;;-11.40;61.40;;;;;;5095978;28;20023;-55
2021/01/19 06:34:51;;;;;;;44.72;19.50;;;-11.40;61.40;;;;;;5095892;28;20096;-53
2021/01/19 06:37:27;;;;;;;42.45;19.10;;;-11.30;61.50;;;;;;5096217;28;20036;-54
2021/01/19 06:39:58;;;;;;;46.15;19.10;;;-11.30;61.50;;;;;;5095693;28;20417;-54
2021/01/19 06:42:31;;;;;;;45.97;19.90;;;-11.30;61.50;;;;;;5096147;28;20106;-55
2021/01/19 06:45:00;;;;;;;49.88;19.40;;;-11.20;61.50;;;;;;5095531;28;20107;-54
2021/01/19 06:47:26;;;;;;;48.53;20.40;;;-11.20;61.40;;;;;;5095383;28;20063;-53
2021/01/19 06:49:53;;;;;;;44.60;18.40;;;-11.10;61.30;;;;;;5095566;28;20023;-52
2021/01/19 06:52:20;;;;;;;47.90;20.25;;;-11.20;60.80;;;;;;5095679;28;20039;-53
2021/01/19 06:55:03;;;;;;;43.75;18.70;;;-11.20;60.60;;;;;;5095415;28;20028;-52
2021/01/19 06:57:28;;;;;;;38.33;17.02;;;-11.30;60.70;;;;;;5095045;28;20456;-55
2021/01/19 07:00:05;;;;;;;44.33;19.75;;;-11.30;60.90;;;;;;5094450;28;20027;-54
2021/01/19 07:02:38;;;;;;;44.38;18.15;;;-11.30;61.10;;;;;;5094208;28;20035;-52
2021/01/19 07:05:23;;;;;;;45.60;19.52;;;-11.30;61.00;;;;;;5094166;28;20024;-54
2021/01/19 07:08:06;;;;;;;41.83;18.08;;;-11.20;61.00;;;;;;5093469;28;20027;-54
2021/01/19 07:10:50;;;;;;;41.30;18.17;;;-11.20;61.00;;;;;;5093200;28;20364;-52
2021/01/19 07:13:24;;;;;;;37.83;17.42;;;-11.20;60.90;;;;;;5093698;28;20155;-52
2021/01/19 07:16:04;;;;;;;43.17;18.83;;;-11.20;60.80;;;;;;5094757;28;20036;-50
2021/01/19 07:19:02;;;;;;;43.95;18.95;;;-11.20;60.70;;;;;;5094316;28;20036;-54
2021/01/19 07:22:08;;;;;;;40.63;18.42;;;-11.20;61.20;;;;;;5074960;28;20056;-53
2021/01/19 07:24:47;;;;;;;43.10;18.27;;;-11.20;60.80;;;;;;5090577;28;20040;-53
2021/01/19 07:27:20;;;;;;;44.10;17.92;;;-11.20;60.60;;;;;;5094938;28;20038;-52
2021/01/19 07:29:46;;;;;;;46.80;19.10;;;-11.20;60.70;;;;;;5094165;28;20032;-50
2021/01/19 07:32:28;;;;;;;42.70;18.25;;;-11.20;60.40;;;;;;5095261;28;20115;-52
2021/01/19 07:34:54;;;;;;;36.50;17.08;;;-11.20;60.70;;;;;;5094086;28;20024;-55
2021/01/19 07:37:31;;;;;;;44.20;18.45;;;-11.20;60.80;;;;;;5092675;28;20028;-50
2021/01/19 07:39:57;;;;;;;49.30;19.25;;;-11.20;60.70;;;;;;5093776;28;20039;-50
2021/01/19 07:42:24;;;;;;;41.33;17.38;;;-11.10;60.60;;;;;;5094691;28;20426;-51
2021/01/19 07:44:57;;;;;;;44.65;17.80;;;-11.10;60.70;;;;;;5093718;28;20036;-51
2021/01/19 07:47:53;;;;;;;45.45;19.73;;;-11.00;60.80;;;;;;5095095;28;20383;-51
2021/01/19 07:50:20;;;;;;;42.20;19.15;;;-11.00;60.60;;;;;;5094516;28;20434;-52
2021/01/19 07:52:47;;;;;;;43.63;17.88;;;-11.00;60.10;;;;;;5095250;28;20112;-51
2021/01/19 07:55:23;;;;;;;53.90;20.27;;;-11.00;60.20;;;;;;5093847;28;20032;-51
2021/01/19 07:57:53;;;;;;;50.15;19.85;;;-10.90;60.20;;;;;;5091176;28;20021;-53
2021/01/19 08:00:21;;;;;;;44.60;18.27;;;-10.90;60.10;;;;;;5095603;28;20027;-54
2021/01/19 08:02:46;;;;;;;44.25;19.00;;;-10.90;60.30;;;;;;5116120;28;20058;-51
2021/01/19 08:05:13;;;;;;;48.70;19.20;;;-10.90;60.00;;;;;;5098555;28;20466;-50
2021/01/19 08:07:43;;;;;;;49.83;20.92;;;-10.80;59.80;;;;;;5094287;28;20024;-51
2021/01/19 08:10:29;;;;;;;52.85;21.25;;;-10.90;60.00;;;;;;5094402;28;20028;-55
2021/01/19 08:12:57;;;;;;;45.38;19.60;;;-10.80;59.90;;;;;;5095329;28;20042;-55
2021/01/19 08:15:31;;;;;;;50.05;20.02;;;-10.80;60.20;;;;;;5095833;28;20100;-56
2021/01/19 08:17:58;;;;;;;47.33;19.80;;;-10.80;60.10;;;;;;5097688;28;20433;-55
2021/01/19 08:20:30;;;;;;;45.15;20.52;;;-10.70;60.10;;;;;;5097660;28;20032;-57
2021/01/19 08:22:57;;;;;;;49.53;20.75;;;-10.70;59.90;;;;;;5099128;28;20036;-56
2021/01/19 08:25:28;;;;;;;41.80;20.13;;;-10.70;59.80;;;;;;5098463;28;20077;-57
2021/01/19 08:27:57;;;;;;;51.17;22.35;;;-10.60;59.90;;;;;;5097372;28;20127;-55
2021/01/19 08:30:30;;;;;;;46.00;20.88;;;-10.60;59.90;;;;;;5097881;28;20426;-56
2021/01/19 08:32:56;;;;;;;46.90;21.25;;;-10.50;59.60;;;;;;5098130;28;20414;-55
2021/01/19 08:35:24;;;;;;;46.78;20.77;;;-10.50;59.50;;;;;;5098062;28;20400;-55
2021/01/19 08:37:52;;;;;;;45.90;20.67;;;-10.50;59.40;;;;;;5098322;28;20044;-55
2021/01/19 08:40:33;;;;;;;59.92;22.90;;;-10.40;59.50;;;;;;5098399;28;20115;-56
2021/01/19 08:43:00;;;;;;;64.28;24.50;;;-10.40;59.70;;;;;;5091639;28;20024;-57
2021/01/19 08:45:30;;;;;;;65.55;25.30;;;-10.40;59.20;;;;;;5078459;28;20046;-56
2021/01/19 08:47:57;;;;;;;41.65;20.25;;;-10.40;59.30;;;;;;5082893;28;20023;-55
2021/01/19 08:50:25;;;;;;;49.75;22.38;;;-10.30;59.20;;;;;;5093431;28;20086;-56
2021/01/19 08:52:51;;;;;;;47.40;21.67;;;-10.30;58.80;;;;;;5097980;28;20020;-55
2021/01/19 08:55:19;;;;;;;55.42;22.55;;;-10.30;58.30;;;;;;5096741;28;20303;-56
2021/01/19 08:57:58;;;;;;;58.67;23.27;;;-10.30;58.10;;;;;;5096381;28;20024;-57
2021/01/19 09:00:37;;;;;;;49.38;21.95;;;-10.20;58.50;;;;;;5089032;28;20028;-55
2021/01/19 09:03:17;;;;;;;47.65;22.67;;;-10.20;58.90;;;;;;5089951;28;20024;-56
2021/01/19 09:05:42;;;;;;;49.58;22.65;;;-10.00;59.30;;;;;;5077351;28;20024;-48
2021/01/19 09:08:18;;;;;;;53.22;23.20;;;-10.00;58.80;;;;;;5077501;28;20020;-48
2021/01/19 09:10:45;;;;;;;61.45;24.20;;;-9.90;58.40;;;;;;5077025;28;20028;-48
2021/01/19 09:13:11;;;;;;;51.88;21.48;;;-9.90;58.50;;;;;;5095576;28;20047;-49
2021/01/19 09:15:42;;;;;;;61.22;23.98;;;-9.80;58.30;;;;;;5096562;28;20035;-53
2021/01/19 09:18:12;;;;;;;;;;;-9.80;58.10;;;;;;5088347;28;20064;-53
2021/01/19 09:20:39;;;;;;;70.57;28.92;;;-9.80;57.70;;;;;;5089669;28;20311;-48
2021/01/19 09:23:15;;;;;;;60.33;24.85;;;-9.80;57.50;;;;;;5097511;28;20036;-48
2021/01/19 09:25:45;;;;;;;52.70;22.45;;;-9.70;57.40;;;;;;5095989;28;20040;-49
2021/01/19 09:28:12;;;;;;;50.90;21.58;;;-9.80;57.10;;;;;;5096800;28;20118;-49
2021/01/19 09:30:39;;;;;;;53.00;19.90;;;-9.70;57.20;;;;;;5096442;28;20032;-48
2021/01/19 09:33:12;;;;;;;45.63;21.20;;;-9.70;56.90;;;;;;5097177;28;20035;-52
2021/01/19 09:35:41;;;;;;;46.58;21.95;;;-9.70;56.90;;;;;;5096367;28;20059;-51
2021/01/19 09:38:21;;;;;;;45.85;20.48;;;-9.70;56.90;;;;;;5096770;28;20035;-52
2021/01/19 09:40:48;;;;;;;37.60;18.15;;;-9.70;56.30;;;;;;5093303;28;20085;-48
2021/01/19 09:43:15;;;;;;;49.92;21.05;;;-9.80;55.80;;;;;;5096477;28;20031;-49
2021/01/19 09:45:42;;;;;;;52.78;21.90;;;-9.80;55.70;;;;;;5095603;28;20084;-50
2021/01/19 09:48:11;;;;;;;49.55;20.42;;;-9.80;55.80;;;;;;5095521;28;20031;-49
2021/01/19 09:50:36;;;;;;;48.08;21.08;;;-9.80;56.60;;;;;;5093079;28;20044;-49
2021/01/19 09:53:02;;;;;;;47.50;20.75;;;-9.90;56.20;;;;;;5087548;28;20414;-49
2021/01/19 09:55:31;;;;;;;68.70;25.88;;;-9.80;56.60;;;;;;5083914;28;20043;-55
2021/01/19 09:57:59;;;;;;;45.17;21.13;;;-9.90;56.10;;;;;;5093797;28;20028;-48
2021/01/19 10:00:37;;;;;;;53.85;21.83;;;-9.90;56.10;;;;;;5095931;28;20040;-50
2021/01/19 10:03:16;;;;;;;53.40;21.58;;;-9.90;56.10;;;;;;5093134;28;20119;-51
2021/01/19 10:05:56;;;;;;;45.10;21.27;;;-9.90;56.10;;;;;;5096307;28;20040;-51
2021/01/19 10:08:25;;;;;;;51.07;20.17;;;-9.90;56.10;;;;;;5091354;28;20043;-52
2021/01/19 10:10:50;;;;;;;38.45;18.35;;;-9.90;56.10;;;;;;5093579;28;20452;-50
2021/01/19 10:13:22;;;;;;;47.95;21.35;;;-9.80;56.50;;;;;;5096442;28;20016;-51
2021/01/19 10:15:55;;;;;;;45.15;18.10;;;-9.80;56.20;;;;;;5095985;28;20072;-49
2021/01/19 10:18:24;;;;;;;45.88;19.83;;;-9.70;56.20;;;;;;5095349;28;20418;-51
2021/01/19 10:20:50;;;;;;;45.42;20.52;;;-9.60;56.20;;;;;;5095493;28;20040;-51
2021/01/19 10:23:26;;;;;;;40.70;17.92;;;-9.50;56.50;;;;;;5095592;28;20035;-50
2021/01/19 10:26:09;;;;;;;42.10;18.15;;;-9.50;57.00;;;;;;5094348;28;20043;-52
2021/01/19 10:28:44;;;;;;;42.72;19.38;;;-9.40;55.90;;;;;;5096720;28;20030;-52
2021/01/19 10:31:22;;;;;;;42.40;18.52;;;-9.40;55.70;;;;;;5094703;28;20028;-50
2021/01/19 10:33:56;;;;;;;41.55;18.27;;;-9.30;56.00;;;;;;5093408;28;20024;-53
2021/01/19 10:36:24;;;;;;;51.03;21.67;;;-9.30;55.60;;;;;;5095068;28;20045;-50
2021/01/19 10:38:50;;;;;;;54.10;20.00;;;-9.30;55.50;;;;;;5096166;28;20340;-48
2021/01/19 10:41:29;;;;;;;51.20;19.92;;;-9.30;55.50;;;;;;5114474;28;20098;-60
2021/01/19 10:43:56;;;;;;;38.97;16.70;;;-9.30;55.60;;;;;;5094618;28;20065;-59
2021/01/19 10:46:24;;;;;;;41.28;17.92;;;-9.30;55.30;;;;;;5095597;28;20028;-51
2021/01/19 10:49:01;;;;;;;49.50;20.38;;;-9.20;55.20;;;;;;5094173;28;20024;-52
2021/01/19 10:51:27;;;;;;;42.97;17.17;;;-9.20;54.70;;;;;;5090636;28;20051;-54
2021/01/19 10:54:13;;;;;;;49.67;18.58;;;-9.20;54.80;;;;;;5092644;28;20032;-54
2021/01/19 10:56:42;;;;;;;39.42;16.77;;;-9.20;54.60;;;;;;5092095;28;20160;-53
2021/01/19 10:59:08;;;;;;;42.75;17.10;;;-9.20;54.70;;;;;;5094173;28;20118;-55
2021/01/19 11:01:35;;;;;;;41.90;18.10;;;-9.20;54.50;;;;;;5095060;28;20028;-57
2021/01/19 11:04:02;;;;;;;44.75;20.08;;;-9.10;54.60;;;;;;5094525;28;20084;-54
2021/01/19 11:06:37;;;;;;;45.25;17.80;;;-9.10;54.80;;;;;;5095176;28;20028;-53
2021/01/19 11:09:06;;;;;;;41.08;18.27;;;-9.10;54.90;;;;;;5075247;28;20032;-54
2021/01/19 11:11:35;;;;;;;64.78;20.63;;;-9.00;55.10;;;;;;5091205;28;20039;-53
2021/01/19 11:14:05;;;;;;;42.17;18.48;;;-9.00;55.00;;;;;;5094858;28;20097;-51
2021/01/19 11:16:37;;;;;;;38.42;17.98;;;-8.90;55.00;;;;;;5097980;28;20089;-55
2021/01/19 11:19:04;;;;;;;40.35;17.63;;;-8.90;54.60;;;;;;5114999;28;20449;-54
2021/01/19 11:21:34;;;;;;;38.45;16.13;;;-8.90;54.70;;;;;;5094671;28;20055;-54
2021/01/19 11:24:01;;;;;;;60.95;23.30;;;-8.90;54.90;;;;;;5095297;28;20036;-55
2021/01/19 11:26:27;;;;;;;54.75;19.00;;;-8.80;54.80;;;;;;5094831;28;20063;-53
2021/01/19 11:28:53;;;;;;;47.83;18.50;;;-8.70;54.80;;;;;;5095369;28;20036;-53
2021/01/19 11:31:26;;;;;;;54.38;22.63;;;-8.70;54.70;;;;;;5095266;28;20105;-56
2021/01/19 11:33:53;;;;;;;39.55;17.83;;;-8.60;54.70;;;;;;5094855;28;20028;-53
2021/01/19 11:36:27;;;;;;;40.60;19.02;;;-8.50;54.60;;;;;;5095179;28;20472;-54
2021/01/19 11:38:54;;;;;;;39.13;17.35;;;-8.50;54.20;;;;;;5094585;28;20059;-54
2021/01/19 11:41:25;;;;;;;40.50;19.17;;;-8.40;54.30;;;;;;5094967;28;20028;-51
2021/01/19 11:43:51;;;;;;;49.03;22.17;;;-8.30;53.90;;;;;;5091807;28;20930;-55
2021/01/19 11:46:21;;;;;;;46.13;19.20;;;-8.20;53.70;;;;;;5080228;28;20032;-54
2021/01/19 11:48:48;;;;;;;43.72;19.98;;;-8.20;53.80;;;;;;5099387;28;20085;-54
2021/01/19 11:51:19;;;;;;;39.53;17.77;;;-8.10;53.90;;;;;;5097759;28;20040;-54
2021/01/19 11:53:49;;;;;;;46.10;19.25;;;-8.10;53.20;;;;;;5098016;28;20373;-59
2021/01/19 11:56:15;;;;;;;47.55;19.80;;;-8.10;53.20;;;;;;5098008;28;20383;-59
2021/01/19 11:58:42;;;;;;;50.17;21.23;;;-8.10;53.50;;;;;;5078270;28;20068;-57
2021/01/19 12:01:09;;;;;;;47.40;21.13;;;-8.00;53.80;;;;;;5092822;28;20118;-57
2021/01/19 12:03:36;;;;;;;52.60;22.73;;;-7.90;53.50;;;;;;5097026;28;20032;-56
2021/01/19 12:06:03;;;;;;;51.45;23.48;;;-7.80;53.20;;;;;;5093338;28;20476;-56
2021/01/19 12:08:29;;;;;;;43.80;20.27;;;-7.80;53.10;;;;;;5094977;28;20035;-55
2021/01/19 12:10:55;;;;;;;48.25;20.45;;;-7.80;53.00;;;;;;5100724;28;20026;-57
2021/01/19 12:13:20;;;;;;;43.50;16.98;;;-7.80;52.90;;;;;;5100774;28;20084;-54
2021/01/19 12:15:46;;;;;;;35.65;14.77;;;-7.80;52.80;;;;;;5095964;28;20040;-57
2021/01/19 12:18:12;;;;;;;35.75;15.63;;;-7.80;52.70;;;;;;5096602;28;20118;-53
2021/01/19 12:20:38;;;;;;;39.83;16.83;;;-7.80;51.80;;;;;;5095924;28;20173;-56
2021/01/19 12:23:04;;;;;;;48.70;19.05;;;-7.80;51.80;;;;;;5090856;28;20027;-59
2021/01/19 12:25:31;;;;;;;50.05;19.95;;;-7.90;51.40;;;;;;5093798;28;20433;-59
2021/01/19 12:27:57;;;;;;;33.70;13.48;;;-7.90;51.70;;;;;;5077862;28;20077;-60
2021/01/19 12:30:23;;;;;;;34.33;13.10;;;-7.90;51.90;;;;;;5096432;28;21530;-59
2021/01/19 12:32:49;;;;;;;38.00;14.57;;;-7.90;52.10;;;;;;5097374;28;20047;-59
2021/01/19 12:35:15;;;;;;;36.90;13.52;;;-7.90;52.20;;;;;;5097585;28;20373;-59